Heidrick, KY

8:09 PM EDT on May 06, 2015 (GMT -0400)
London-Corbin / McKee | | Change Station
CLOSE
Current Station
Airport
Location: London-Corbin,
Elevation: 1211 ft
Nearby Weather Stations

Elev 1211 ft 37.09 °N, 84.08 °W | Updated 16 minutes ago

Partly Cloudy
Partly Cloudy
76 °F
Feels Like 76 °F
N
4
Wind Variable Wind from East

Today
High -- | Low -- °F
--% Chance of Precip.
Yesterday
High -- | Low -- °F
Precip. -- in
6:36 AM 8:28 PM
Waning Gibbous, 91% visible
Pressure 30.08 in
Visibility 10.0 miles
Clouds Few 12000 ft
Dew Point 54 °F
Humidity 46%
Rainfall 0.00 in
Snow Depth Not available.
UV 0 out of 12
Pollen 8.90 out of 12
Air Quality Not available.
Flu Activity Sporadic
METAR KLOZ 062353Z AUTO 09003KT 10SM FEW120 24/12 A3011 RMK AO2 SLP186 60000 T02440122 10306 20244 56006

More Conditions Fewer Conditions

Pressure 30.08 in
Visibility 10.0 miles
Clouds Few 12000 ft
Dew Point 54 °F
Humidity 46%
Rainfall 0.00 in
Snow Depth Not available.
UV 0 out of 12
Pollen 8.90 out of 12
Air Quality Not available.
Flu Activity Sporadic
METAR KLOZ 062353Z AUTO 09003KT 10SM FEW120 24/12 A3011 RMK AO2 SLP186 60000 T02440122 10306 20244 56006

More Conditions Fewer Conditions

10-Day Weather Forecast

Almanac

Astronomy

May. 06, 2015 Rise Set
Actual Time
Civil Twilight
Nautical Twilight
Astronomical Twilight
Moon
Length of Visible Light
Length of Day
Tomorrow will be .
, % of the Moon is Illuminated

Today's Extremes

State Highs State Lows

Community

WunderPhotos

Upload Photos

1,819,047 photos uploaded!

WunderBlogs® & News

Nearby

Air Quality

  Air Quality AQ Index Pollutant
Not available.

Snow Depth

Station Depth Elevation

Earthquake Activity

City Distance Mag. Time & Date
Minimum magnitude displayed is 2.5.

Coastal Water Temperatures

Place Temperature

Stations

Nearby Weather Stations

Station Location Temp. Windchill Dew Point Humidity Wind Precip. Elev Updated Type